createdAt,value
2023-12-16T07:15:17.720Z,99.96
2023-12-16T07:20:20.511Z,100.00
2023-12-16T07:25:23.136Z,100.00
2023-12-16T07:30:25.864Z,100.00
2023-12-16T07:35:28.543Z,100.00
2023-12-16T07:40:33.186Z,100.00
2023-12-16T07:45:37.415Z,100.00
2023-12-16T07:50:40.047Z,100.00
2023-12-16T07:55:42.670Z,99.84
2023-12-16T08:00:45.368Z,100.00
2023-12-16T08:05:48.045Z,99.53
2023-12-16T08:10:54.250Z,99.14
2023-12-16T08:15:56.979Z,98.81
2023-12-16T08:20:59.659Z,98.99
2023-12-16T08:26:02.439Z,98.34
2023-12-16T08:31:08.234Z,98.82
2023-12-16T08:36:10.973Z,97.73
2023-12-16T08:41:13.741Z,97.75
2023-12-16T08:46:16.689Z,97.75
2023-12-16T08:51:25.363Z,97.46
2023-12-16T08:56:27.968Z,96.20
2023-12-16T09:01:31.313Z,96.26
2023-12-16T09:06:38.550Z,94.87
2023-12-16T09:11:47.365Z,95.31
2023-12-16T09:16:49.934Z,93.10
2023-12-16T09:21:52.638Z,91.70
2023-12-16T09:26:55.282Z,92.12
2023-12-16T09:31:57.946Z,90.58
2023-12-16T09:37:00.599Z,88.29
2023-12-16T09:42:04.374Z,87.15
2023-12-16T09:47:10.108Z,86.51
2023-12-16T09:52:14.038Z,86.74
2023-12-16T09:57:19.750Z,85.46
2023-12-16T10:02:29.587Z,89.00
2023-12-16T10:07:32.447Z,85.23
2023-12-16T10:12:35.360Z,86.15
2023-12-16T10:17:38.733Z,85.32
2023-12-16T10:22:44.279Z,84.77
2023-12-16T10:27:48.852Z,84.08
2023-12-16T10:32:51.564Z,82.38
2023-12-16T10:37:56.135Z,81.52
2023-12-16T10:42:59.228Z,82.88
2023-12-16T10:48:05.251Z,85.17
2023-12-16T10:53:15.805Z,78.79
2023-12-16T10:58:29.826Z,78.12
2023-12-16T11:03:40.148Z,74.47
2023-12-16T11:08:42.775Z,75.61
2023-12-16T11:13:45.826Z,73.18
2023-12-16T11:18:50.643Z,73.83
2023-12-16T11:23:54.909Z,75.51
2023-12-16T11:28:57.625Z,73.57
2023-12-16T11:34:00.768Z,74.84
2023-12-16T11:39:04.486Z,74.61
2023-12-16T11:44:08.795Z,75.39
2023-12-16T11:49:14.565Z,75.05
2023-12-16T11:54:17.329Z,75.31
2023-12-16T11:59:20.033Z,75.66
2023-12-16T12:04:22.730Z,77.49
2023-12-16T12:09:25.471Z,78.23
2023-12-16T12:14:28.595Z,78.57
2023-12-16T12:19:31.308Z,79.16
2023-12-16T12:24:34.138Z,80.72
2023-12-16T12:29:56.381Z,81.86
2023-12-16T12:35:07.558Z,82.22
2023-12-16T12:40:14.496Z,81.62
2023-12-16T12:45:34.237Z,82.70
2023-12-16T12:50:37.950Z,81.73
2023-12-16T12:55:44.433Z,81.52
2023-12-16T13:00:47.547Z,82.17
2023-12-16T13:05:50.974Z,82.56
2023-12-16T13:10:53.973Z,81.53
2023-12-16T13:15:58.342Z,82.47
2023-12-16T13:21:01.808Z,83.61
2023-12-16T13:26:11.929Z,84.34
2023-12-16T13:31:14.721Z,84.10
2023-12-16T13:36:33.705Z,83.58
2023-12-16T13:41:40.618Z,84.28
2023-12-16T13:46:44.310Z,84.46
2023-12-16T13:51:46.887Z,85.20
2023-12-16T13:56:49.699Z,86.33
2023-12-16T14:01:52.477Z,86.73
2023-12-16T14:06:55.150Z,86.87
2023-12-16T14:11:57.776Z,87.67
2023-12-16T14:17:00.635Z,88.05
2023-12-16T14:22:03.385Z,88.26
2023-12-16T14:27:06.099Z,89.20
2023-12-16T14:32:08.839Z,89.22
2023-12-16T14:37:11.435Z,89.60
2023-12-16T14:42:14.297Z,90.00
2023-12-16T14:47:16.922Z,91.27
2023-12-16T14:52:19.533Z,93.39
2023-12-16T14:57:22.121Z,92.90
2023-12-16T15:02:25.505Z,93.29
2023-12-16T15:07:28.237Z,94.75
2023-12-16T15:12:30.966Z,95.46
2023-12-16T15:17:34.990Z,96.63
2023-12-16T15:22:38.550Z,97.45
2023-12-16T15:27:42.133Z,98.03
2023-12-16T15:32:45.033Z,98.14
2023-12-16T15:37:47.681Z,98.60
2023-12-16T15:42:50.275Z,98.57
2023-12-16T15:47:53.009Z,98.62
2023-12-16T15:52:55.713Z,98.78
2023-12-16T15:57:58.476Z,99.15
2023-12-16T16:03:02.205Z,99.25
2023-12-16T16:08:05.789Z,99.42
2023-12-16T16:13:13.471Z,99.68
2023-12-16T16:18:17.413Z,99.95
2023-12-16T16:23:20.091Z,100.00
2023-12-16T16:28:22.863Z,99.82
2023-12-16T16:33:25.701Z,99.74
2023-12-16T16:38:29.907Z,100.00
2023-12-16T16:43:32.569Z,100.00
2023-12-16T16:48:35.326Z,100.00
2023-12-16T16:53:38.137Z,100.00
2023-12-16T16:58:43.432Z,100.00
2023-12-16T17:03:46.133Z,100.00
2023-12-16T17:08:48.795Z,100.00
2023-12-16T17:13:51.430Z,100.00
2023-12-16T17:18:54.203Z,100.00
2023-12-16T17:23:57.845Z,100.00
2023-12-16T17:29:00.566Z,100.00
2023-12-16T17:34:03.327Z,100.00
2023-12-16T17:39:06.970Z,100.00
2023-12-16T17:44:09.935Z,100.00
2023-12-16T17:49:12.785Z,100.00
2023-12-16T17:54:15.444Z,100.00
2023-12-16T17:59:18.129Z,100.00
2023-12-16T18:04:21.039Z,100.00
2023-12-16T18:09:23.774Z,100.00
2023-12-16T18:14:26.815Z,100.00
2023-12-16T18:19:30.919Z,100.00
2023-12-16T18:24:33.647Z,100.00
2023-12-16T18:29:39.349Z,100.00
2023-12-16T18:34:42.575Z,100.00
2023-12-16T18:39:45.700Z,100.00
2023-12-16T18:44:48.600Z,100.00
2023-12-16T18:49:51.360Z,100.00
2023-12-16T18:54:54.033Z,100.00
2023-12-16T18:59:56.641Z,100.00
2023-12-16T19:04:59.458Z,100.00
2023-12-16T19:10:05.954Z,100.00
2023-12-16T19:15:08.911Z,100.00
2023-12-16T19:20:12.023Z,100.00
2023-12-16T19:25:14.963Z,100.00
2023-12-16T19:30:17.817Z,100.00
2023-12-16T19:35:20.653Z,100.00
2023-12-16T19:40:23.341Z,99.25
2023-12-16T19:45:26.123Z,99.73
2023-12-16T19:50:28.848Z,99.55
2023-12-16T19:55:31.578Z,98.64
2023-12-16T20:00:35.516Z,98.21
2023-12-16T20:05:38.287Z,98.13
2023-12-16T20:10:43.310Z,97.78
2023-12-16T20:15:46.025Z,97.57
2023-12-16T20:20:48.732Z,97.82
2023-12-16T20:25:52.493Z,97.35
2023-12-16T20:30:55.356Z,97.11
2023-12-16T20:35:57.978Z,97.71
2023-12-16T20:41:00.621Z,97.49
2023-12-16T20:46:04.073Z,97.15
2023-12-16T20:51:06.976Z,96.52
2023-12-16T20:56:10.438Z,96.80
2023-12-16T21:01:13.129Z,96.83
2023-12-16T21:06:16.097Z,96.73
2023-12-16T21:11:18.818Z,96.73
2023-12-16T21:16:22.850Z,96.07
2023-12-16T21:21:25.515Z,96.11
2023-12-16T21:26:28.376Z,95.86
2023-12-16T21:31:31.062Z,96.45
2023-12-16T21:36:33.738Z,96.80
2023-12-16T21:41:36.424Z,96.38
2023-12-16T21:46:39.096Z,96.50
2023-12-16T21:51:42.019Z,96.15
2023-12-16T21:56:44.891Z,96.81
2023-12-16T22:01:47.623Z,96.48
2023-12-16T22:06:50.263Z,96.67
2023-12-16T22:11:52.923Z,96.91
2023-12-16T22:16:55.633Z,96.62
2023-12-16T22:21:59.494Z,96.84
2023-12-16T22:27:02.191Z,96.64
2023-12-16T22:32:05.252Z,97.35
2023-12-16T22:37:07.914Z,96.63
2023-12-16T22:42:10.824Z,96.91
2023-12-16T22:47:13.543Z,96.36
2023-12-16T22:52:16.156Z,96.67
